Time;durP1;ratioP1;P1;durP2;ratioP2;P2;SDS_P1;SDS_P2;PMS_P1;PMS_P2;Temp;Humidity;BMP_temperature;BMP_pressure;BME280_temperature;BME280_humidity;BME280_pressure;Samples;Min_cycle;Max_cycle;Signal;HPM_P1;HPM_P2
2022/06/19 00:01:04;;;;;;;7.05;4.03;;;;;;;;;;5092390;28;20062;-70
2022/06/19 00:03:35;;;;;;;6.97;4.20;;;;;;;;;;5095309;28;20024;-70
2022/06/19 00:06:02;;;;;;;8.68;4.35;;;;;;;;;;5095002;28;20028;-71
2022/06/19 00:08:33;;;;;;;6.00;3.90;;;;;;;;;;5099225;28;20477;-71
2022/06/19 00:11:11;;;;;;;8.10;3.95;;;;;;;;;;5101061;28;20057;-70
2022/06/19 00:13:37;;;;;;;8.13;4.05;;;;;;;;;;5098985;28;20021;-71
2022/06/19 00:16:03;;;;;;;10.13;4.10;;;;;;;;;;5088329;28;20059;-71
2022/06/19 00:18:29;;;;;;;6.63;4.13;;;;;;;;;;5106659;27;20746;-70
2022/06/19 00:20:55;;;;;;;7.40;4.32;;;;;;;;;;5092371;28;20074;-71
2022/06/19 00:23:23;;;;;;;11.85;4.90;;;;;;;;;;5098331;28;20043;-71
2022/06/19 00:25:49;;;;;;;17.50;6.00;;;;;;;;;;5097011;28;20142;-71
2022/06/19 00:28:16;;;;;;;22.08;5.80;;;;;;;;;;5092165;28;20102;-71
2022/06/19 00:30:44;;;;;;;10.88;5.53;;;;;;;;;;5103807;28;20031;-70
2022/06/19 00:33:10;;;;;;;16.00;6.13;;;;;;;;;;5092909;28;20053;-71
2022/06/19 00:35:36;;;;;;;10.65;5.88;;;;;;;;;;5091305;28;20024;-71
2022/06/19 00:38:02;;;;;;;8.40;5.65;;;;;;;;;;5095818;28;20027;-70
2022/06/19 00:40:29;;;;;;;10.20;6.75;;;;;;;;;;5092444;28;20513;-70
2022/06/19 00:42:55;;;;;;;12.95;7.55;;;;;;;;;;5107313;28;20111;-71
2022/06/19 00:45:36;;;;;;;12.50;8.85;;;;;;;;;;5102094;28;20039;-71
2022/06/19 00:48:05;;;;;;;11.32;7.78;;;;;;;;;;5092036;28;20546;-71
2022/06/19 00:50:34;;;;;;;11.35;7.80;;;;;;;;;;5094229;28;20028;-71
2022/06/19 00:53:01;;;;;;;13.63;8.57;;;;;;;;;;5094636;28;20027;-70
2022/06/19 00:55:39;;;;;;;13.93;8.93;;;;;;;;;;5103022;28;20466;-71
2022/06/19 00:58:08;;;;;;;10.75;8.15;;;;;;;;;;5090014;28;20024;-71
2022/06/19 01:00:34;;;;;;;7.45;6.32;;;;;;;;;;5092353;28;20107;-71
2022/06/19 01:03:16;;;;;;;11.45;6.80;;;;;;;;;;5101887;28;20017;-70
2022/06/19 01:05:43;;;;;;;10.20;6.43;;;;;;;;;;5090757;28;20094;-70
2022/06/19 01:08:10;;;;;;;10.20;6.82;;;;;;;;;;5089358;28;20061;-69
2022/06/19 01:10:39;;;;;;;15.70;11.23;;;;;;;;;;5097154;28;20059;-71
2022/06/19 01:13:07;;;;;;;26.90;19.98;;;;;;;;;;5091340;28;20070;-71
2022/06/19 01:15:36;;;;;;;26.42;18.05;;;;;;;;;;5105398;28;20521;-72
2022/06/19 01:18:04;;;;;;;23.20;17.27;;;;;;;;;;5091767;28;20032;-71
2022/06/19 01:20:37;;;;;;;17.52;12.70;;;;;;;;;;5095363;28;20073;-71
2022/06/19 01:23:10;;;;;;;13.50;10.02;;;;;;;;;;5099715;28;20401;-72
2022/06/19 01:25:36;;;;;;;;;;;;;;;;;;5098977;28;20401;-70
2022/06/19 01:30:54;;;;;;;12.80;9.45;;;;;;;;;;5052436;28;20524;-69
2022/06/19 01:33:28;;;;;;;14.00;8.48;;;;;;;;;;5059463;28;20056;-71
2022/06/19 01:35:59;;;;;;;10.25;6.63;;;;;;;;;;5050151;28;20113;-72
2022/06/19 01:38:26;;;;;;;8.18;5.43;;;;;;;;;;5033884;28;20039;-72
2022/06/19 01:40:54;;;;;;;8.70;5.60;;;;;;;;;;5039086;28;20107;-71
2022/06/19 01:43:20;;;;;;;8.43;6.43;;;;;;;;;;5034618;28;20033;-70
2022/06/19 01:45:59;;;;;;;10.93;8.25;;;;;;;;;;5046483;28;20030;-69
2022/06/19 01:48:28;;;;;;;13.27;7.18;;;;;;;;;;5046867;28;20055;-70
2022/06/19 01:50:55;;;;;;;11.65;6.25;;;;;;;;;;5031577;28;20100;-70
2022/06/19 01:53:27;;;;;;;13.57;9.02;;;;;;;;;;5042941;28;20029;-69
2022/06/19 01:55:54;;;;;;;12.93;8.50;;;;;;;;;;5036037;28;20196;-71
2022/06/19 01:58:21;;;;;;;13.60;8.45;;;;;;;;;;5048008;28;20040;-71
2022/06/19 02:00:50;;;;;;;13.25;7.78;;;;;;;;;;5033979;28;20526;-72
2022/06/19 02:03:31;;;;;;;13.25;7.22;;;;;;;;;;5048337;28;20414;-70
2022/06/19 02:05:58;;;;;;;12.98;7.97;;;;;;;;;;5033196;28;20036;-70
2022/06/19 02:08:24;;;;;;;19.65;10.07;;;;;;;;;;5057778;28;20037;-70
2022/06/19 02:10:51;;;;;;;17.02;11.20;;;;;;;;;;5083321;28;20052;-70
2022/06/19 02:13:21;;;;;;;12.52;8.15;;;;;;;;;;5079384;28;20024;-72
2022/06/19 02:15:49;;;;;;;11.25;6.75;;;;;;;;;;5074011;28;20145;-70
2022/06/19 02:18:18;;;;;;;7.40;5.10;;;;;;;;;;5074582;28;20154;-69
2022/06/19 02:20:45;;;;;;;5.53;3.97;;;;;;;;;;5077545;28;20020;-70
2022/06/19 02:23:11;;;;;;;4.93;4.10;;;;;;;;;;5072798;28;20104;-72
2022/06/19 02:25:41;;;;;;;6.20;3.65;;;;;;;;;;5074227;28;20146;-70
2022/06/19 02:28:10;;;;;;;7.20;4.40;;;;;;;;;;5074135;28;20031;-71
2022/06/19 02:30:39;;;;;;;7.82;5.43;;;;;;;;;;5082879;28;20066;-72
2022/06/19 02:33:07;;;;;;;10.90;6.00;;;;;;;;;;5061357;28;20030;-70
2022/06/19 02:35:33;;;;;;;10.48;6.40;;;;;;;;;;5106387;28;20040;-70
2022/06/19 02:37:59;;;;;;;12.43;7.90;;;;;;;;;;5094390;28;20024;-71
2022/06/19 02:40:41;;;;;;;16.38;9.93;;;;;;;;;;5099360;28;20035;-71
2022/06/19 02:43:21;;;;;;;21.10;11.80;;;;;;;;;;5107101;28;20094;-72
2022/06/19 02:45:48;;;;;;;11.90;7.97;;;;;;;;;;5094567;28;20040;-71
2022/06/19 02:48:18;;;;;;;11.60;5.18;;;;;;;;;;5099660;28;20016;-71
2022/06/19 02:50:44;;;;;;;6.22;4.30;;;;;;;;;;5094006;28;20031;-71
2022/06/19 02:53:11;;;;;;;9.57;4.10;;;;;;;;;;5091645;28;20025;-71
2022/06/19 02:55:38;;;;;;;5.43;4.10;;;;;;;;;;5102373;28;20023;-72
2022/06/19 02:58:08;;;;;;;5.22;4.07;;;;;;;;;;5095024;28;20031;-71
2022/06/19 03:00:43;;;;;;;5.60;4.10;;;;;;;;;;5095936;28;20016;-71
2022/06/19 03:03:29;;;;;;;6.78;3.70;;;;;;;;;;5093570;28;20020;-70
2022/06/19 03:05:55;;;;;;;5.25;3.83;;;;;;;;;;5094513;28;20036;-72
2022/06/19 03:08:24;;;;;;;6.80;4.13;;;;;;;;;;5099500;28;20113;-72
2022/06/19 03:10:50;;;;;;;7.05;3.72;;;;;;;;;;5105724;28;20032;-71
2022/06/19 03:13:20;;;;;;;5.63;3.80;;;;;;;;;;5098041;28;20043;-70
2022/06/19 03:15:46;;;;;;;8.00;3.88;;;;;;;;;;5092442;28;20035;-70
2022/06/19 03:18:12;;;;;;;6.82;4.00;;;;;;;;;;5093485;28;20480;-71
2022/06/19 03:20:38;;;;;;;7.38;3.83;;;;;;;;;;5094372;28;20110;-70
2022/06/19 03:23:05;;;;;;;10.90;3.90;;;;;;;;;;5100064;28;20051;-70
2022/06/19 03:25:31;;;;;;;7.05;3.97;;;;;;;;;;5088210;28;20032;-71
2022/06/19 03:27:59;;;;;;;6.03;3.42;;;;;;;;;;5102035;28;20039;-71
2022/06/19 03:30:25;;;;;;;5.13;3.17;;;;;;;;;;5098626;28;20031;-70
2022/06/19 03:32:51;;;;;;;5.28;3.40;;;;;;;;;;5094283;28;20028;-71
2022/06/19 03:35:17;;;;;;;9.70;3.60;;;;;;;;;;5092165;28;20028;-71
2022/06/19 03:37:44;;;;;;;5.25;3.60;;;;;;;;;;5093645;28;20024;-69
2022/06/19 03:40:10;;;;;;;8.13;3.70;;;;;;;;;;5093079;28;20499;-71
2022/06/19 03:42:37;;;;;;;6.78;3.40;;;;;;;;;;5100822;28;20068;-71
2022/06/19 03:45:03;;;;;;;5.45;3.53;;;;;;;;;;5092870;28;20043;-71
2022/06/19 03:47:30;;;;;;;5.60;3.30;;;;;;;;;;5093505;28;20024;-72
2022/06/19 03:49:56;;;;;;;6.95;3.35;;;;;;;;;;5094333;28;20116;-73
2022/06/19 03:52:22;;;;;;;5.25;3.20;;;;;;;;;;5094131;28;20485;-70
2022/06/19 03:54:48;;;;;;;5.82;3.28;;;;;;;;;;5099777;28;20481;-70
2022/06/19 03:57:15;;;;;;;5.22;3.20;;;;;;;;;;5091257;28;20024;-72
2022/06/19 03:59:41;;;;;;;4.75;3.10;;;;;;;;;;5093499;28;20031;-71
2022/06/19 04:02:09;;;;;;;4.80;3.42;;;;;;;;;;5092561;28;20024;-71
2022/06/19 04:04:35;;;;;;;8.18;3.15;;;;;;;;;;5098169;28;20032;-72
2022/06/19 04:07:01;;;;;;;4.53;3.20;;;;;;;;;;5092217;28;20481;-69
2022/06/19 04:09:28;;;;;;;5.05;3.17;;;;;;;;;;5091358;28;20027;-72
2022/06/19 04:11:55;;;;;;;5.60;3.15;;;;;;;;;;5098401;28;20052;-73
2022/06/19 04:14:21;;;;;;;11.35;3.30;;;;;;;;;;5091659;28;20036;-72
2022/06/19 04:16:47;;;;;;;7.88;3.17;;;;;;;;;;5091711;28;20021;-70
2022/06/19 04:19:13;;;;;;;5.10;3.05;;;;;;;;;;5096219;28;20028;-69
2022/06/19 04:21:41;;;;;;;4.80;3.00;;;;;;;;;;5094027;28;20032;-70
2022/06/19 04:24:07;;;;;;;8.77;3.70;;;;;;;;;;5092170;28;20086;-73
2022/06/19 04:26:35;;;;;;;12.18;3.58;;;;;;;;;;5091253;28;20036;-70
2022/06/19 04:29:01;;;;;;;14.95;4.30;;;;;;;;;;5090900;28;20541;-71
2022/06/19 04:31:27;;;;;;;25.58;14.55;;;;;;;;;;5090907;28;20028;-71
2022/06/19 04:33:53;;;;;;;17.80;10.63;;;;;;;;;;5103754;28;20451;-71
2022/06/19 04:36:20;;;;;;;13.13;6.68;;;;;;;;;;5093187;28;20032;-70
2022/06/19 04:38:49;;;;;;;10.50;5.30;;;;;;;;;;5095537;28;20127;-70
2022/06/19 04:41:16;;;;;;;21.52;9.68;;;;;;;;;;5090435;28;20070;-70
2022/06/19 04:43:42;;;;;;;11.35;4.68;;;;;;;;;;5099644;28;20031;-69
2022/06/19 04:46:09;;;;;;;12.80;5.60;;;;;;;;;;5095340;28;20035;-73
2022/06/19 04:48:35;;;;;;;11.80;4.20;;;;;;;;;;5089833;28;20024;-73
2022/06/19 04:51:01;;;;;;;7.15;3.72;;;;;;;;;;5087278;28;20107;-73
2022/06/19 04:53:32;;;;;;;6.72;3.53;;;;;;;;;;5088325;28;21774;-72
2022/06/19 04:56:00;;;;;;;5.78;3.20;;;;;;;;;;5076475;28;20488;-71
2022/06/19 04:58:27;;;;;;;7.88;3.00;;;;;;;;;;5098572;28;20062;-74
2022/06/19 05:00:54;;;;;;;10.18;3.60;;;;;;;;;;5102076;28;20035;-73
2022/06/19 05:03:21;;;;;;;4.60;2.78;;;;;;;;;;5104658;28;20836;-72
2022/06/19 05:05:47;;;;;;;4.97;3.10;;;;;;;;;;5101835;28;20040;-70
2022/06/19 05:08:13;;;;;;;4.57;2.78;;;;;;;;;;5092164;28;20409;-72
2022/06/19 05:10:41;;;;;;;7.53;2.90;;;;;;;;;;5097643;28;20055;-77
2022/06/19 05:13:07;;;;;;;8.35;3.40;;;;;;;;;;5099474;28;20016;-76
2022/06/19 05:15:36;;;;;;;9.68;3.60;;;;;;;;;;5102555;28;20103;-83
2022/06/19 05:18:03;;;;;;;5.57;3.40;;;;;;;;;;5101258;28;20028;-74
2022/06/19 05:20:29;;;;;;;6.40;3.70;;;;;;;;;;5096648;28;20063;-72
2022/06/19 05:22:55;;;;;;;7.50;3.42;;;;;;;;;;5093256;28;20034;-71
2022/06/19 05:25:21;;;;;;;5.53;3.03;;;;;;;;;;5113276;27;20105;-71
2022/06/19 05:27:47;;;;;;;5.95;3.03;;;;;;;;;;5113559;27;20074;-72
2022/06/19 05:30:14;;;;;;;5.03;2.80;;;;;;;;;;5080781;28;20023;-72
2022/06/19 05:32:40;;;;;;;5.70;2.97;;;;;;;;;;5075219;28;20027;-73
2022/06/19 05:35:07;;;;;;;6.25;2.90;;;;;;;;;;5075540;28;21735;-71
2022/06/19 05:37:33;;;;;;;5.47;3.10;;;;;;;;;;5056688;28;20020;-72
2022/06/19 05:40:00;;;;;;;4.93;2.83;;;;;;;;;;5051574;28;20482;-72
2022/06/19 05:42:26;;;;;;;6.22;3.28;;;;;;;;;;5054478;28;20040;-73
2022/06/19 05:44:52;;;;;;;6.63;3.50;;;;;;;;;;5073462;28;20119;-71
2022/06/19 05:47:18;;;;;;;10.93;3.50;;;;;;;;;;5072747;28;20020;-70
2022/06/19 05:49:44;;;;;;;5.95;3.53;;;;;;;;;;5078799;28;20545;-70
2022/06/19 05:52:18;;;;;;;13.00;4.40;;;;;;;;;;5073483;28;20028;-69
2022/06/19 05:54:44;;;;;;;8.77;3.08;;;;;;;;;;5077167;28;21549;-69
2022/06/19 05:57:11;;;;;;;4.68;2.60;;;;;;;;;;5074263;28;20052;-69
2022/06/19 05:59:37;;;;;;;4.60;3.00;;;;;;;;;;5074039;28;20458;-69
2022/06/19 06:02:03;;;;;;;5.35;3.08;;;;;;;;;;5079677;28;20028;-70
2022/06/19 06:04:29;;;;;;;10.55;3.50;;;;;;;;;;5076564;28;20040;-69
2022/06/19 06:06:55;;;;;;;4.60;3.05;;;;;;;;;;5081078;28;20047;-70
2022/06/19 06:09:22;;;;;;;6.05;3.05;;;;;;;;;;5080638;28;20162;-71
2022/06/19 06:11:48;;;;;;;5.63;3.20;;;;;;;;;;5079317;28;20025;-69
2022/06/19 06:14:14;;;;;;;5.90;2.80;;;;;;;;;;5075054;28;20083;-69
2022/06/19 06:16:40;;;;;;;4.68;3.00;;;;;;;;;;5075037;28;20119;-69
2022/06/19 06:19:06;;;;;;;5.03;2.90;;;;;;;;;;5076144;28;20023;-69
2022/06/19 06:21:32;;;;;;;4.15;3.08;;;;;;;;;;5071952;28;20044;-70
2022/06/19 06:23:58;;;;;;;5.45;3.13;;;;;;;;;;5072060;28;20104;-70
2022/06/19 06:26:29;;;;;;;4.68;3.10;;;;;;;;;;5072601;28;20123;-70
2022/06/19 06:28:56;;;;;;;3.15;2.72;;;;;;;;;;5073529;28;20032;-70
2022/06/19 06:31:22;;;;;;;4.22;2.90;;;;;;;;;;5072688;28;20033;-69
2022/06/19 06:33:49;;;;;;;3.78;3.00;;;;;;;;;;5070916;28;20127;-70
2022/06/19 06:36:16;;;;;;;6.50;3.10;;;;;;;;;;5072655;28;20020;-70
2022/06/19 06:38:42;;;;;;;5.20;3.00;;;;;;;;;;5070381;28;20074;-71
2022/06/19 06:41:10;;;;;;;4.85;3.03;;;;;;;;;;5070223;28;20080;-70
2022/06/19 06:43:37;;;;;;;4.57;2.83;;;;;;;;;;5072038;28;20032;-71
2022/06/19 06:46:04;;;;;;;4.13;3.00;;;;;;;;;;5077674;28;20339;-69
2022/06/19 06:48:30;;;;;;;4.57;2.92;;;;;;;;;;5068987;28;20035;-70
2022/06/19 06:50:56;;;;;;;3.58;2.92;;;;;;;;;;5067295;28;20363;-69
2022/06/19 06:53:23;;;;;;;5.25;2.90;;;;;;;;;;5071975;28;20029;-70
2022/06/19 06:55:49;;;;;;;9.85;3.25;;;;;;;;;;5067506;28;20024;-76
2022/06/19 06:58:15;;;;;;;11.35;3.80;;;;;;;;;;5069102;28;20031;-76
2022/06/19 07:00:42;;;;;;;4.90;3.20;;;;;;;;;;5085402;28;20028;-72
2022/06/19 07:03:10;;;;;;;7.50;3.25;;;;;;;;;;5069819;28;20166;-76
2022/06/19 07:05:36;;;;;;;5.72;3.22;;;;;;;;;;5074362;28;20051;-73
2022/06/19 07:08:02;;;;;;;6.32;3.58;;;;;;;;;;5081101;28;20028;-72
2022/06/19 07:10:28;;;;;;;7.88;4.63;;;;;;;;;;5077027;28;20410;-73
2022/06/19 07:12:55;;;;;;;7.18;4.03;;;;;;;;;;5070940;28;20027;-73
2022/06/19 07:15:21;;;;;;;7.55;4.72;;;;;;;;;;5073619;28;20040;-74
2022/06/19 07:17:47;;;;;;;6.43;3.92;;;;;;;;;;5073513;28;20027;-73
2022/06/19 07:20:13;;;;;;;7.70;3.45;;;;;;;;;;5075153;28;20095;-70
2022/06/19 07:22:39;;;;;;;5.50;3.53;;;;;;;;;;5072280;28;20028;-75
2022/06/19 07:25:06;;;;;;;7.05;3.75;;;;;;;;;;5069953;28;21737;-73
2022/06/19 07:27:32;;;;;;;11.57;4.18;;;;;;;;;;5054555;28;20091;-79
2022/06/19 07:29:58;;;;;;;24.50;4.78;;;;;;;;;;5072413;28;20075;-73
2022/06/19 07:32:27;;;;;;;9.95;4.00;;;;;;;;;;5083459;28;20443;-84
2022/06/19 07:34:53;;;;;;;7.32;4.20;;;;;;;;;;5076876;28;20043;-79
2022/06/19 07:37:19;;;;;;;6.60;3.70;;;;;;;;;;5090968;28;20590;-80
2022/06/19 07:39:45;;;;;;;4.35;3.17;;;;;;;;;;5099880;28;20034;-78
2022/06/19 07:42:12;;;;;;;4.75;3.30;;;;;;;;;;5094486;28;20024;-80
2022/06/19 07:44:39;;;;;;;6.07;3.70;;;;;;;;;;5094728;28;20166;-76
2022/06/19 07:50:09;;;;;;;9.80;3.33;;;;;;;;;;5096825;28;20082;-75
2022/06/19 07:52:35;;;;;;;4.78;2.60;;;;;;;;;;5082761;28;20035;-77
2022/06/19 07:55:03;;;;;;;5.00;2.88;;;;;;;;;;5100150;28;20024;-71
2022/06/19 07:57:32;;;;;;;5.55;2.92;;;;;;;;;;5093997;28;20030;-72
2022/06/19 07:59:58;;;;;;;3.63;2.30;;;;;;;;;;5078991;28;20023;-74
2022/06/19 08:02:24;;;;;;;16.30;3.00;;;;;;;;;;5090168;28;20484;-74
2022/06/19 08:04:50;;;;;;;3.55;2.05;;;;;;;;;;5081569;28;20465;-76
2022/06/19 08:07:17;;;;;;;4.00;2.20;;;;;;;;;;5087808;28;20094;-72
2022/06/19 08:09:43;;;;;;;4.15;2.20;;;;;;;;;;5089707;28;20097;-74
2022/06/19 08:12:12;;;;;;;3.67;2.38;;;;;;;;;;5091630;28;20028;-77
2022/06/19 08:14:41;;;;;;;13.18;3.10;;;;;;;;;;5100764;28;20148;-73
2022/06/19 08:17:07;;;;;;;4.10;2.20;;;;;;;;;;5067661;28;20021;-75
2022/06/19 08:19:33;;;;;;;9.95;2.55;;;;;;;;;;5096728;28;20031;-75
2022/06/19 08:21:59;;;;;;;3.95;1.80;;;;;;;;;;5096866;28;20468;-74
2022/06/19 08:24:25;;;;;;;3.53;2.10;;;;;;;;;;5093825;28;20540;-74
2022/06/19 08:27:16;;;;;;;4.57;2.10;;;;;;;;;;5089951;28;20103;-80
2022/06/19 08:29:44;;;;;;;3.88;2.22;;;;;;;;;;5085604;28;20122;-78
2022/06/19 08:32:10;;;;;;;2.92;2.30;;;;;;;;;;5093895;28;20019;-75
2022/06/19 08:34:38;;;;;;;2.65;2.00;;;;;;;;;;5096182;28;20044;-79
2022/06/19 08:37:05;;;;;;;2.65;1.92;;;;;;;;;;5087778;28;20028;-76
2022/06/19 08:39:32;;;;;;;9.73;2.50;;;;;;;;;;5098102;28;20021;-75
2022/06/19 08:42:01;;;;;;;4.88;2.53;;;;;;;;;;5090552;28;20089;-77
2022/06/19 08:44:46;;;;;;;2.40;2.03;;;;;;;;;;5090373;28;20040;-75
2022/06/19 08:47:21;;;;;;;5.53;1.95;;;;;;;;;;5102440;28;20131;-87
2022/06/19 08:50:13;;;;;;;4.85;2.00;;;;;;;;;;5085125;28;20067;-75
2022/06/19 08:52:39;;;;;;;2.63;1.90;;;;;;;;;;5066815;28;20555;-75
2022/06/19 08:55:05;;;;;;;6.70;2.47;;;;;;;;;;5068544;28;20069;-79
2022/06/19 08:58:03;;;;;;;3.65;2.15;;;;;;;;;;5064469;28;20068;-75
2022/06/19 09:00:49;;;;;;;7.53;2.60;;;;;;;;;;5047623;28;20074;-79
2022/06/19 09:06:34;;;;;;;4.90;2.55;;;;;;;;;;5007083;28;20164;-80
2022/06/19 09:09:14;;;;;;;4.15;2.10;;;;;;;;;;5002439;28;20578;-73
2022/06/19 09:12:10;;;;;;;5.53;2.80;;;;;;;;;;5006343;28;20029;-78
2022/06/19 09:14:56;;;;;;;6.75;2.20;;;;;;;;;;5007036;28;20076;-75
2022/06/19 09:17:26;;;;;;;3.30;2.35;;;;;;;;;;5009021;28;20038;-75
2022/06/19 09:19:55;;;;;;;4.50;2.70;;;;;;;;;;5003744;28;20034;-75
2022/06/19 09:22:33;;;;;;;4.82;2.40;;;;;;;;;;5005713;28;20052;-73
2022/06/19 09:25:20;;;;;;;3.42;2.20;;;;;;;;;;5007817;28;20061;-73
2022/06/19 09:27:52;;;;;;;4.63;2.40;;;;;;;;;;4924503;29;20046;-74
2022/06/19 09:30:24;;;;;;;5.18;2.30;;;;;;;;;;4918419;29;20136;-76
2022/06/19 09:32:54;;;;;;;4.88;2.38;;;;;;;;;;4919808;28;20035;-72
2022/06/19 09:35:28;;;;;;;6.85;2.20;;;;;;;;;;4916779;29;20059;-75
2022/06/19 09:38:11;;;;;;;6.32;2.30;;;;;;;;;;4914887;29;20178;-76
2022/06/19 09:40:42;;;;;;;5.95;2.42;;;;;;;;;;4940925;28;20043;-74
2022/06/19 09:43:20;;;;;;;4.05;2.20;;;;;;;;;;4968299;28;20078;-74
2022/06/19 09:45:53;;;;;;;14.00;3.28;;;;;;;;;;4973024;28;20532;-75
2022/06/19 09:48:19;;;;;;;13.48;2.83;;;;;;;;;;4971861;28;20034;-78
2022/06/19 09:50:45;;;;;;;26.15;4.05;;;;;;;;;;4979267;28;20027;-77
2022/06/19 09:53:34;;;;;;;2.88;1.92;;;;;;;;;;4973779;28;20057;-75
2022/06/19 09:56:09;;;;;;;6.72;2.45;;;;;;;;;;4973623;28;20053;-75
2022/06/19 09:58:48;;;;;;;4.10;2.28;;;;;;;;;;4982640;28;20480;-76
2022/06/19 10:01:15;;;;;;;9.02;2.50;;;;;;;;;;4972944;28;20039;-75
2022/06/19 10:03:54;;;;;;;5.15;2.45;;;;;;;;;;4976802;28;20113;-75
2022/06/19 10:06:25;;;;;;;15.43;3.50;;;;;;;;;;5094696;28;20032;-75
2022/06/19 10:08:55;;;;;;;17.98;2.70;;;;;;;;;;5093058;28;20479;-75
2022/06/19 10:11:28;;;;;;;5.72;2.80;;;;;;;;;;5075918;28;20034;-75
2022/06/19 10:14:10;;;;;;;4.68;2.30;;;;;;;;;;5094655;28;20362;-75
2022/06/19 10:16:46;;;;;;;4.68;2.90;;;;;;;;;;5076761;28;20035;-75
2022/06/19 10:19:19;;;;;;;4.53;2.30;;;;;;;;;;5092456;28;20024;-75
2022/06/19 10:22:13;;;;;;;4.70;2.10;;;;;;;;;;5096077;28;20024;-75
2022/06/19 10:24:56;;;;;;;3.75;2.17;;;;;;;;;;5094056;28;20038;-75
2022/06/19 10:27:41;;;;;;;2.67;2.30;;;;;;;;;;5089881;28;20019;-75
2022/06/19 10:30:13;;;;;;;4.55;2.40;;;;;;;;;;5088411;28;20135;-75
2022/06/19 10:32:51;;;;;;;5.90;2.40;;;;;;;;;;5091624;28;20039;-75
2022/06/19 10:35:20;;;;;;;5.50;2.33;;;;;;;;;;5094374;28;20084;-75
2022/06/19 10:38:04;;;;;;;7.10;2.25;;;;;;;;;;5093381;28;20054;-75
2022/06/19 10:40:30;;;;;;;4.63;2.63;;;;;;;;;;5096221;28;20056;-75
2022/06/19 10:43:08;;;;;;;10.50;3.05;;;;;;;;;;5089694;28;20020;-74
2022/06/19 10:45:40;;;;;;;6.82;2.60;;;;;;;;;;5095681;28;20085;-75
2022/06/19 10:48:06;;;;;;;5.82;2.53;;;;;;;;;;5096138;28;20473;-75
2022/06/19 10:50:41;;;;;;;7.80;2.83;;;;;;;;;;5096109;28;20093;-75
2022/06/19 10:53:26;;;;;;;5.15;3.55;;;;;;;;;;5093828;28;20070;-75
2022/06/19 10:56:07;;;;;;;4.53;2.50;;;;;;;;;;5091201;28;20024;-75
2022/06/19 10:58:33;;;;;;;4.80;2.40;;;;;;;;;;5098411;28;20032;-75
2022/06/19 11:01:01;;;;;;;4.90;2.55;;;;;;;;;;5090287;28;20020;-75
2022/06/19 11:06:18;;;;;;;10.63;3.75;;;;;;;;;;5093255;28;20511;-74
2022/06/19 11:08:45;;;;;;;3.47;2.13;;;;;;;;;;5093761;28;20028;-75
2022/06/19 11:11:17;;;;;;;15.35;3.38;;;;;;;;;;5090777;28;20042;-75
2022/06/19 11:14:01;;;;;;;4.00;2.30;;;;;;;;;;5084723;28;20400;-75
2022/06/19 11:16:28;;;;;;;4.78;2.58;;;;;;;;;;5098595;28;20096;-75
2022/06/19 11:18:57;;;;;;;4.30;2.22;;;;;;;;;;5098364;28;20020;-75
2022/06/19 11:21:24;;;;;;;4.10;2.10;;;;;;;;;;5097358;28;20420;-75
2022/06/19 11:23:55;;;;;;;19.00;2.90;;;;;;;;;;5095743;28;20099;-75
2022/06/19 11:26:30;;;;;;;9.88;2.78;;;;;;;;;;5096659;28;20119;-75
2022/06/19 11:29:17;;;;;;;4.97;2.47;;;;;;;;;;5094520;28;20028;-75
2022/06/19 11:32:02;;;;;;;4.07;2.50;;;;;;;;;;5092281;28;20048;-75
2022/06/19 11:34:44;;;;;;;5.53;2.70;;;;;;;;;;5081674;28;20056;-75
2022/06/19 11:37:16;;;;;;;3.92;2.50;;;;;;;;;;5074509;28;20023;-75
2022/06/19 11:39:47;;;;;;;2.80;2.20;;;;;;;;;;5073689;28;20016;-75
2022/06/19 11:42:19;;;;;;;3.10;1.98;;;;;;;;;;5071889;28;20280;-75
2022/06/19 11:44:52;;;;;;;7.55;2.67;;;;;;;;;;5071327;28;20031;-75
2022/06/19 11:47:19;;;;;;;;;;;;;;;;;;5072963;28;20032;-75
2022/06/19 11:49:45;;;;;;;5.88;2.53;;;;;;;;;;5075589;28;19912;-74
2022/06/19 11:52:17;;;;;;;6.90;2.10;;;;;;;;;;5067950;28;20039;-75
2022/06/19 11:54:45;;;;;;;2.15;1.92;;;;;;;;;;5070742;28;20032;-75
2022/06/19 11:57:24;;;;;;;4.65;2.15;;;;;;;;;;5075149;28;20044;-75
2022/06/19 11:59:54;;;;;;;4.18;2.22;;;;;;;;;;5072778;28;20028;-75
2022/06/19 12:02:31;;;;;;;3.33;2.20;;;;;;;;;;5070071;28;20029;-74
2022/06/19 12:05:00;;;;;;;2.85;2.08;;;;;;;;;;5074994;28;20051;-75
2022/06/19 12:07:27;;;;;;;2.33;2.03;;;;;;;;;;5067366;28;20016;-75
2022/06/19 12:09:57;;;;;;;3.55;2.20;;;;;;;;;;5077582;28;20024;-75
2022/06/19 12:12:24;;;;;;;5.75;2.72;;;;;;;;;;5076787;28;20039;-76
2022/06/19 12:15:02;;;;;;;2.60;2.13;;;;;;;;;;5065700;28;20118;-72
2022/06/19 12:17:32;;;;;;;2.58;1.90;;;;;;;;;;5089368;28;20195;-75
2022/06/19 12:20:03;;;;;;;4.13;2.50;;;;;;;;;;5060452;28;20510;-75
2022/06/19 12:22:36;;;;;;;3.10;2.45;;;;;;;;;;5074243;28;20682;-74
2022/06/19 12:25:09;;;;;;;5.88;2.63;;;;;;;;;;5073484;28;20312;-78
2022/06/19 12:27:38;;;;;;;9.23;3.60;;;;;;;;;;5082200;28;20028;-78
2022/06/19 12:30:06;;;;;;;5.20;2.60;;;;;;;;;;5080553;28;20511;-75
2022/06/19 12:32:34;;;;;;;5.00;2.40;;;;;;;;;;5072813;28;20033;-75
2022/06/19 12:35:07;;;;;;;8.52;2.60;;;;;;;;;;5083542;28;20071;-75
2022/06/19 12:37:35;;;;;;;9.77;2.60;;;;;;;;;;5092606;28;20070;-76
2022/06/19 12:40:03;;;;;;;3.90;2.33;;;;;;;;;;5092678;28;20028;-76
2022/06/19 12:42:37;;;;;;;5.05;2.40;;;;;;;;;;5085863;28;20063;-76
2022/06/19 12:45:03;;;;;;;5.40;2.47;;;;;;;;;;5103808;28;20074;-74
2022/06/19 12:47:36;;;;;;;4.30;2.80;;;;;;;;;;5087619;28;20036;-77
2022/06/19 12:50:05;;;;;;;5.10;2.38;;;;;;;;;;5098434;28;20026;-77
2022/06/19 12:52:34;;;;;;;4.32;2.60;;;;;;;;;;5098359;28;20112;-70
2022/06/19 12:55:26;;;;;;;6.28;2.75;;;;;;;;;;5095149;28;20475;-76
2022/06/19 12:57:55;;;;;;;4.55;2.50;;;;;;;;;;5090773;28;20040;-77
2022/06/19 13:00:33;;;;;;;3.80;2.55;;;;;;;;;;5101246;28;20469;-71
2022/06/19 13:03:18;;;;;;;13.77;2.88;;;;;;;;;;5075782;28;20756;-77
2022/06/19 13:06:01;;;;;;;4.63;2.72;;;;;;;;;;5093159;28;20055;-77
2022/06/19 13:08:46;;;;;;;5.35;3.03;;;;;;;;;;5089217;28;20103;-71
2022/06/19 13:11:15;;;;;;;6.63;3.70;;;;;;;;;;5092917;28;20592;-74
2022/06/19 13:13:58;;;;;;;4.97;2.88;;;;;;;;;;5088306;28;20078;-75
2022/06/19 13:16:24;;;;;;;7.18;4.93;;;;;;;;;;5088339;28;20031;-73
2022/06/19 13:19:00;;;;;;;4.38;3.17;;;;;;;;;;5089105;28;20031;-72
2022/06/19 13:21:45;;;;;;;5.90;2.90;;;;;;;;;;5076189;28;20064;-74
2022/06/19 13:24:17;;;;;;;4.97;2.20;;;;;;;;;;5093824;28;20028;-75
2022/06/19 13:29:44;;;;;;;6.03;2.60;;;;;;;;;;5095599;28;20492;-73
2022/06/19 13:32:13;;;;;;;6.18;2.70;;;;;;;;;;5092659;28;20035;-72
2022/06/19 13:34:54;;;;;;;6.32;2.90;;;;;;;;;;5078774;28;20044;-72
2022/06/19 13:37:20;;;;;;;3.10;2.40;;;;;;;;;;5097841;28;20169;-73
2022/06/19 13:40:04;;;;;;;6.32;2.40;;;;;;;;;;5091546;28;20440;-75
2022/06/19 13:42:56;;;;;;;4.55;2.97;;;;;;;;;;5097856;28;20473;-78
2022/06/19 13:45:25;;;;;;;3.80;2.70;;;;;;;;;;5094844;28;20125;-76
2022/06/19 13:48:02;;;;;;;6.90;3.40;;;;;;;;;;5094744;28;20026;-73
2022/06/19 13:50:34;;;;;;;2.80;2.50;;;;;;;;;;5089518;28;20499;-75
2022/06/19 13:53:05;;;;;;;7.95;2.88;;;;;;;;;;5094474;28;20035;-74
2022/06/19 13:55:34;;;;;;;15.93;3.00;;;;;;;;;;5094927;28;20078;-71
2022/06/19 13:58:07;;;;;;;3.55;2.60;;;;;;;;;;5087385;28;20021;-74
2022/06/19 14:00:38;;;;;;;6.73;2.73;;;;;;;;;;5073885;28;20454;-74
2022/06/19 14:03:13;;;;;;;3.13;2.35;;;;;;;;;;5091460;28;21575;-74
2022/06/19 14:05:41;;;;;;;3.70;2.25;;;;;;;;;;5099532;28;20036;-74
2022/06/19 14:08:25;;;;;;;9.90;2.70;;;;;;;;;;5091716;28;20086;-72
2022/06/19 14:10:59;;;;;;;4.70;2.50;;;;;;;;;;5100786;28;20027;-73
2022/06/19 14:13:37;;;;;;;3.45;2.42;;;;;;;;;;5093867;28;22276;-72
2022/06/19 14:16:18;;;;;;;4.18;2.28;;;;;;;;;;5111603;27;20023;-73
2022/06/19 14:18:55;;;;;;;4.68;2.58;;;;;;;;;;5091425;28;20024;-72
2022/06/19 14:21:22;;;;;;;5.47;2.58;;;;;;;;;;5093356;28;20039;-73
2022/06/19 14:23:57;;;;;;;4.13;2.72;;;;;;;;;;5090475;28;20028;-74
2022/06/19 14:26:35;;;;;;;5.80;2.33;;;;;;;;;;5093023;28;20032;-73
2022/06/19 14:29:01;;;;;;;5.40;2.22;;;;;;;;;;5089303;28;20073;-78
2022/06/19 14:31:28;;;;;;;2.85;2.33;;;;;;;;;;5089725;28;20431;-73
2022/06/19 14:33:54;;;;;;;3.05;2.33;;;;;;;;;;5088133;28;20126;-73
2022/06/19 14:49:15;;;;;;;18.05;3.00;;;;;;;;;;5095072;27;20425;-71
2022/06/19 14:51:54;;;;;;;2.53;2.20;;;;;;;;;;5101147;28;20027;-73
2022/06/19 14:54:27;;;;;;;3.28;2.38;;;;;;;;;;5098523;28;20068;-75
2022/06/19 14:57:08;;;;;;;4.47;2.42;;;;;;;;;;5094639;28;20030;-70
2022/06/19 14:59:54;;;;;;;4.72;2.58;;;;;;;;;;5102877;28;20035;-74
2022/06/19 15:02:22;;;;;;;6.75;2.58;;;;;;;;;;5128988;27;20564;-75
2022/06/19 15:04:54;;;;;;;7.45;2.63;;;;;;;;;;5114078;27;20048;-71
2022/06/19 15:07:22;;;;;;;5.80;2.53;;;;;;;;;;5114856;27;20024;-73
2022/06/19 15:09:50;;;;;;;4.85;2.70;;;;;;;;;;5097141;28;20038;-71
2022/06/19 15:12:16;;;;;;;5.97;2.90;;;;;;;;;;5100459;27;20046;-69
2022/06/19 15:14:46;;;;;;;6.13;2.80;;;;;;;;;;5099925;28;20020;-75
2022/06/19 15:20:24;;;;;;;3.70;2.17;;;;;;;;;;5428937;23;20060;-70
2022/06/19 15:23:11;;;;;;;4.32;2.60;;;;;;;;;;5035472;28;20041;-71
2022/06/19 15:25:37;;;;;;;4.88;2.35;;;;;;;;;;5020601;28;20029;-70
2022/06/19 15:28:03;;;;;;;3.90;2.80;;;;;;;;;;5021030;28;20357;-73
2022/06/19 15:30:42;;;;;;;8.95;3.08;;;;;;;;;;5024518;28;20131;-73